createdAt,value
2019-03-01T00:01:50.538Z,70.07
2019-03-01T00:05:08.368Z,69.93
2019-03-01T00:08:08.057Z,69.29
2019-03-01T00:11:18.566Z,70.11
2019-03-01T00:14:24.561Z,70.02
2019-03-01T00:17:15.039Z,70.58
2019-03-01T00:20:18.319Z,70.16
2019-03-01T00:23:26.432Z,70.79
2019-03-01T00:26:29.285Z,70.82
2019-03-01T00:29:30.636Z,70.50
2019-03-01T00:32:43.276Z,70.24
2019-03-01T00:35:42.735Z,70.89
2019-03-01T00:38:33.967Z,70.85
2019-03-01T00:41:41.230Z,71.23
2019-03-01T00:44:38.761Z,71.14
2019-03-01T00:47:08.963Z,71.61
2019-03-01T00:49:39.245Z,73.91
2019-03-01T00:52:10.364Z,75.12
2019-03-01T00:54:41.706Z,76.87
2019-03-01T00:57:13.284Z,78.13
2019-03-01T00:59:43.578Z,79.46
2019-03-01T01:02:13.903Z,80.13
2019-03-01T01:04:44.537Z,81.50
2019-03-01T01:07:14.792Z,83.20
2019-03-01T01:09:45.320Z,84.52
2019-03-01T01:12:15.714Z,84.41
2019-03-01T01:14:45.995Z,85.36
2019-03-01T01:17:16.254Z,85.74
2019-03-01T01:19:46.622Z,86.81
2019-03-01T01:22:16.934Z,87.20
2019-03-01T01:24:47.213Z,87.20
2019-03-01T01:27:19.397Z,88.00
2019-03-01T01:29:49.722Z,88.57
2019-03-01T01:32:20.028Z,89.17
2019-03-01T01:34:50.985Z,89.84
2019-03-01T01:37:21.305Z,90.06
2019-03-01T01:39:51.658Z,90.24
2019-03-01T01:42:22.066Z,90.00
2019-03-01T01:44:52.306Z,89.88
2019-03-01T01:47:22.630Z,90.35
2019-03-01T01:49:52.913Z,90.18
2019-03-01T01:52:23.250Z,90.63
2019-03-01T01:54:53.485Z,91.48
2019-03-01T01:57:23.735Z,92.30
2019-03-01T01:59:54.082Z,92.41
2019-03-01T02:02:24.332Z,91.37
2019-03-01T02:04:54.949Z,91.62
2019-03-01T02:07:25.269Z,91.55
2019-03-01T02:09:55.509Z,92.24
2019-03-01T02:12:26.000Z,92.33
2019-03-01T02:14:56.270Z,92.41
2019-03-01T02:17:26.588Z,91.64
2019-03-01T02:19:56.888Z,92.35
2019-03-01T02:22:27.156Z,92.45
2019-03-01T02:24:57.363Z,92.15
2019-03-01T02:27:29.699Z,92.46
2019-03-01T02:30:01.136Z,93.06
2019-03-01T02:32:35.600Z,93.24
2019-03-01T02:35:06.859Z,92.90
2019-03-01T02:37:37.122Z,92.75
2019-03-01T02:40:08.898Z,92.96
2019-03-01T02:42:39.190Z,92.06
2019-03-01T02:45:12.875Z,91.81
2019-03-01T02:47:43.442Z,92.05
2019-03-01T02:50:14.936Z,92.26
2019-03-01T02:52:45.220Z,91.74
2019-03-01T02:55:17.439Z,92.36
2019-03-01T02:57:47.854Z,92.73
2019-03-01T03:00:20.404Z,91.66
2019-03-01T03:02:50.803Z,92.67
2019-03-01T03:05:21.430Z,92.56
2019-03-01T03:07:59.820Z,92.65
2019-03-01T03:10:30.193Z,91.98
2019-03-01T03:13:02.716Z,93.22
2019-03-01T03:15:39.367Z,93.45
2019-03-01T03:18:09.817Z,92.49
2019-03-01T03:20:40.205Z,91.74
2019-03-01T03:23:10.567Z,92.76
2019-03-01T03:25:40.853Z,92.33
2019-03-01T03:28:11.055Z,92.96
2019-03-01T03:30:41.421Z,92.16
2019-03-01T03:33:11.836Z,91.93
2019-03-01T03:35:43.761Z,92.69
2019-03-01T03:38:14.094Z,93.06
2019-03-01T03:40:44.439Z,92.27
2019-03-01T03:43:15.156Z,91.28
2019-03-01T03:45:45.425Z,90.95
2019-03-01T03:48:15.680Z,90.13
2019-03-01T03:50:46.029Z,89.26
2019-03-01T03:53:16.716Z,90.28
2019-03-01T03:55:47.013Z,91.17
2019-03-01T03:58:17.224Z,90.63
2019-03-01T04:00:47.497Z,89.95
2019-03-01T04:03:17.769Z,90.50
2019-03-01T04:05:48.267Z,89.74
2019-03-01T04:08:18.798Z,88.78
2019-03-01T04:10:49.050Z,90.01
2019-03-01T04:13:19.316Z,91.44
2019-03-01T04:15:50.258Z,91.22
2019-03-01T04:18:20.520Z,91.33
2019-03-01T04:20:50.762Z,90.89
2019-03-01T04:23:21.104Z,91.88
2019-03-01T04:25:51.423Z,91.39
2019-03-01T04:28:21.672Z,91.67
2019-03-01T04:30:51.925Z,92.43
2019-03-01T04:33:22.184Z,92.71
2019-03-01T04:35:52.505Z,93.04
2019-03-01T04:38:22.958Z,93.44
2019-03-01T04:40:53.209Z,93.48
2019-03-01T04:43:23.597Z,93.74
2019-03-01T04:45:55.581Z,93.46
2019-03-01T04:48:25.933Z,93.30
2019-03-01T04:50:56.306Z,93.74
2019-03-01T04:53:26.540Z,93.34
2019-03-01T04:55:56.784Z,93.68
2019-03-01T04:58:27.078Z,93.46
2019-03-01T05:00:57.775Z,93.67
2019-03-01T05:03:28.047Z,93.40
2019-03-01T05:05:58.595Z,93.52
2019-03-01T05:08:28.857Z,93.96
2019-03-01T05:10:59.230Z,94.15
2019-03-01T05:13:29.478Z,94.21
2019-03-01T05:16:01.349Z,93.69
2019-03-01T05:18:31.590Z,92.96
2019-03-01T05:21:02.966Z,92.04
2019-03-01T05:23:33.293Z,93.12
2019-03-01T05:26:03.583Z,93.24
2019-03-01T05:28:33.845Z,92.95
2019-03-01T05:31:04.092Z,92.44
2019-03-01T05:33:34.417Z,92.87
2019-03-01T05:36:04.686Z,93.19
2019-03-01T05:38:34.975Z,93.11
2019-03-01T05:41:05.230Z,93.00
2019-03-01T05:43:35.549Z,92.71
2019-03-01T05:46:05.747Z,92.42
2019-03-01T05:48:36.145Z,92.53
2019-03-01T05:51:08.164Z,92.61
2019-03-01T05:53:38.485Z,91.92
2019-03-01T05:56:10.850Z,90.87
2019-03-01T05:58:47.289Z,90.14
2019-03-01T06:01:33.272Z,90.52
2019-03-01T06:04:16.702Z,90.84
2019-03-01T06:07:22.934Z,91.04
2019-03-01T06:09:58.827Z,90.27
2019-03-01T06:13:09.147Z,90.70
2019-03-01T06:15:56.728Z,91.22
2019-03-01T06:19:02.978Z,91.25
2019-03-01T06:22:08.576Z,91.27
2019-03-01T06:24:51.816Z,90.92
2019-03-01T06:27:45.974Z,90.92
2019-03-01T06:31:02.821Z,90.18
2019-03-01T06:34:32.091Z,90.09
2019-03-01T06:37:20.321Z,89.25
2019-03-01T06:40:40.543Z,88.82
2019-03-01T06:43:52.200Z,89.38
2019-03-01T06:46:40.594Z,91.23
2019-03-01T06:49:25.768Z,91.48
2019-03-01T06:51:56.111Z,91.50
2019-03-01T06:54:26.382Z,91.34
2019-03-01T06:56:56.737Z,91.59
2019-03-01T06:59:29.406Z,90.67
2019-03-01T07:02:06.434Z,90.45
2019-03-01T07:04:38.950Z,90.83
2019-03-01T07:07:11.456Z,91.14
2019-03-01T07:09:44.109Z,90.89
2019-03-01T07:12:17.135Z,90.16
2019-03-01T07:14:48.692Z,90.20
2019-03-01T07:17:19.592Z,90.56
2019-03-01T07:19:55.667Z,90.34
2019-03-01T07:22:28.511Z,90.81
2019-03-01T07:24:59.536Z,91.40
2019-03-01T07:27:30.801Z,91.52
2019-03-01T07:30:02.469Z,91.18
2019-03-01T07:32:34.132Z,90.07
2019-03-01T07:35:05.865Z,90.00
2019-03-01T07:37:37.330Z,90.79
2019-03-01T07:40:08.569Z,90.90
2019-03-01T07:42:38.789Z,90.30
2019-03-01T07:45:10.763Z,89.98
2019-03-01T07:47:43.661Z,89.98
2019-03-01T07:50:14.351Z,90.27
2019-03-01T07:52:46.955Z,89.98
2019-03-01T07:55:19.572Z,89.66
2019-03-01T07:57:50.661Z,89.41
2019-03-01T08:00:21.189Z,89.26
2019-03-01T08:02:51.463Z,90.12
2019-03-01T08:05:22.300Z,89.84
2019-03-01T08:07:56.019Z,90.13
2019-03-01T08:10:25.456Z,89.30
2019-03-01T08:12:55.728Z,89.04
2019-03-01T08:15:49.067Z,89.61
2019-03-01T08:18:23.028Z,89.75
2019-03-01T08:20:53.427Z,89.47
2019-03-01T08:23:31.749Z,89.11
2019-03-01T08:26:06.542Z,89.00
2019-03-01T08:28:37.030Z,89.16
2019-03-01T08:31:17.414Z,88.93
2019-03-01T08:33:57.520Z,89.86
2019-03-01T08:36:38.610Z,89.25
2019-03-01T08:39:11.496Z,89.46
2019-03-01T08:41:41.882Z,89.64
2019-03-01T08:44:12.274Z,89.95
2019-03-01T08:46:45.584Z,88.87
2019-03-01T08:49:14.548Z,89.52
2019-03-01T08:51:44.822Z,89.45
2019-03-01T08:54:16.343Z,89.78
2019-03-01T08:56:50.269Z,88.89
2019-03-01T08:59:19.770Z,89.22
2019-03-01T09:01:50.199Z,89.49
2019-03-01T09:04:21.745Z,89.77
2019-03-01T09:06:53.145Z,90.07
2019-03-01T09:09:23.731Z,90.07
2019-03-01T09:11:54.066Z,90.15
2019-03-01T09:14:26.206Z,90.18
2019-03-01T09:16:56.367Z,89.83
2019-03-01T09:19:26.769Z,89.55
2019-03-01T09:21:59.871Z,89.44
2019-03-01T09:24:30.100Z,89.07
2019-03-01T09:27:00.369Z,89.19
2019-03-01T09:29:30.644Z,89.19
2019-03-01T09:32:01.937Z,88.28
2019-03-01T09:34:33.022Z,89.33
2019-03-01T09:37:03.366Z,89.24
2019-03-01T09:39:33.827Z,89.30
2019-03-01T09:42:06.230Z,89.77
2019-03-01T09:44:38.441Z,89.62
2019-03-01T09:47:10.255Z,89.87
2019-03-01T09:49:42.270Z,89.40
2019-03-01T09:52:12.776Z,89.66
2019-03-01T09:54:43.539Z,89.58
2019-03-01T09:57:21.610Z,88.66
2019-03-01T10:00:02.123Z,88.05
2019-03-01T10:02:41.571Z,87.14
2019-03-01T10:05:22.302Z,86.87
2019-03-01T10:08:02.588Z,87.15
2019-03-01T10:10:46.731Z,87.71
2019-03-01T10:13:30.316Z,87.34
2019-03-01T10:16:08.051Z,87.56
2019-03-01T10:18:47.410Z,87.40
2019-03-01T10:21:26.706Z,87.83
2019-03-01T10:24:07.996Z,88.21
2019-03-01T10:26:46.795Z,87.53
2019-03-01T10:29:27.975Z,87.70
2019-03-01T10:32:07.720Z,88.44
2019-03-01T10:34:48.449Z,87.24
2019-03-01T10:37:32.204Z,87.24
2019-03-01T10:40:13.592Z,86.44
2019-03-01T10:42:54.724Z,86.01
2019-03-01T10:45:34.956Z,86.75
2019-03-01T10:48:14.948Z,86.41
2019-03-01T10:51:07.356Z,86.38
2019-03-01T10:53:50.564Z,86.45
2019-03-01T10:56:27.366Z,86.41
2019-03-01T10:58:58.511Z,86.53
2019-03-01T11:01:28.845Z,86.19
2019-03-01T11:03:59.192Z,86.55
2019-03-01T11:06:29.536Z,87.14
2019-03-01T11:09:00.208Z,88.09
2019-03-01T11:11:37.839Z,89.09
2019-03-01T11:14:10.043Z,89.51
2019-03-01T11:16:40.492Z,89.05
2019-03-01T11:19:11.310Z,89.20
2019-03-01T11:21:47.691Z,89.31
2019-03-01T11:24:28.904Z,88.46
2019-03-01T11:27:12.814Z,88.45
2019-03-01T11:29:48.450Z,88.33
2019-03-01T11:32:29.815Z,88.11
2019-03-01T11:35:09.607Z,87.29
2019-03-01T11:37:49.510Z,87.81
2019-03-01T11:40:34.730Z,87.29
2019-03-01T11:43:07.670Z,86.30
2019-03-01T11:45:39.407Z,86.57
2019-03-01T11:48:09.818Z,86.95
2019-03-01T11:50:41.995Z,86.58
2019-03-01T11:53:12.315Z,86.21
2019-03-01T11:55:42.640Z,86.69
2019-03-01T11:58:13.125Z,86.00
2019-03-01T12:00:52.065Z,85.47
2019-03-01T12:03:23.908Z,85.14
2019-03-01T12:06:03.292Z,85.57
2019-03-01T12:08:43.333Z,84.84
2019-03-01T12:11:23.481Z,85.36
2019-03-01T12:14:07.972Z,85.31
2019-03-01T12:16:48.373Z,85.22
2019-03-01T12:19:28.334Z,84.68
2019-03-01T12:22:16.764Z,85.39
2019-03-01T12:24:50.688Z,84.92
2019-03-01T12:27:29.259Z,85.42
2019-03-01T12:30:07.745Z,84.93
2019-03-01T12:32:47.895Z,84.29
2019-03-01T12:35:28.028Z,84.75
2019-03-01T12:38:07.227Z,84.15
2019-03-01T12:40:47.486Z,85.08
2019-03-01T12:43:18.796Z,84.64
2019-03-01T12:45:49.063Z,85.08
2019-03-01T12:48:19.269Z,85.19
2019-03-01T12:50:49.518Z,85.25
2019-03-01T12:53:20.292Z,85.47
2019-03-01T12:55:51.847Z,85.83
2019-03-01T12:58:22.042Z,88.13
2019-03-01T13:00:52.973Z,90.38
2019-03-01T13:03:29.987Z,90.15
2019-03-01T13:06:03.834Z,91.44
2019-03-01T13:08:35.757Z,91.48
2019-03-01T13:11:06.460Z,91.92
2019-03-01T13:13:57.459Z,91.56
2019-03-01T13:16:38.452Z,91.54
2019-03-01T13:19:09.402Z,91.26
2019-03-01T13:21:39.629Z,91.12
2019-03-01T13:24:12.572Z,89.19
2019-03-01T13:30:16.542Z,87.82
2019-03-01T13:32:59.004Z,86.71
2019-03-01T13:35:41.424Z,85.97
2019-03-01T13:38:46.181Z,85.44
2019-03-01T13:41:17.330Z,86.30
2019-03-01T13:43:47.930Z,85.60
2019-03-01T13:46:18.245Z,85.42
2019-03-01T13:48:50.911Z,86.02
2019-03-01T13:51:22.637Z,86.04
2019-03-01T13:53:53.215Z,86.05
2019-03-01T13:56:32.789Z,85.24
2019-03-01T13:59:09.029Z,86.73
2019-03-01T14:01:47.812Z,87.37
2019-03-01T14:04:19.057Z,87.06
2019-03-01T14:06:49.774Z,86.73
2019-03-01T14:09:23.313Z,87.46
2019-03-01T14:11:55.890Z,87.78
2019-03-01T14:14:31.439Z,88.60
2019-03-01T14:17:24.501Z,89.21
2019-03-01T14:20:21.321Z,88.18
2019-03-01T14:23:04.671Z,88.46
2019-03-01T14:26:04.783Z,88.47
2019-03-01T14:28:55.597Z,88.03
2019-03-01T14:31:32.878Z,88.60
2019-03-01T14:34:04.145Z,88.17
2019-03-01T14:36:45.087Z,88.82
2019-03-01T14:39:28.381Z,89.87
2019-03-01T14:42:10.947Z,89.32
2019-03-01T14:44:47.931Z,88.93
2019-03-01T14:47:25.292Z,88.79
2019-03-01T14:50:04.340Z,89.51
2019-03-01T14:52:34.999Z,90.88
2019-03-01T14:55:05.812Z,90.30
2019-03-01T14:57:47.079Z,90.34
2019-03-01T15:00:35.192Z,90.42
2019-03-01T15:03:39.895Z,90.26
2019-03-01T15:06:19.122Z,90.49
2019-03-01T15:08:51.162Z,89.98
2019-03-01T15:11:22.972Z,89.92
2019-03-01T15:13:54.770Z,90.05
2019-03-01T15:16:25.160Z,90.02
2019-03-01T15:18:55.904Z,90.31
2019-03-01T15:21:26.913Z,90.32
2019-03-01T15:24:00.354Z,89.82
2019-03-01T15:26:30.024Z,90.45
2019-03-01T15:29:00.517Z,90.14
2019-03-01T15:31:31.204Z,89.52
2019-03-01T15:34:02.147Z,90.07
2019-03-01T15:36:33.828Z,88.60
2019-03-01T15:39:08.544Z,88.96
2019-03-01T15:41:42.075Z,88.71
2019-03-01T15:44:11.490Z,89.27
2019-03-01T15:46:42.098Z,88.91
2019-03-01T15:49:15.147Z,89.46
2019-03-01T15:51:45.644Z,89.38
2019-03-01T15:54:16.292Z,89.29
2019-03-01T15:56:47.116Z,89.33
2019-03-01T15:59:17.531Z,89.67
2019-03-01T16:01:48.205Z,89.86
2019-03-01T16:04:18.559Z,89.37
2019-03-01T16:06:49.244Z,89.08
2019-03-01T16:09:21.836Z,89.66
2019-03-01T16:11:53.133Z,88.95
2019-03-01T16:14:25.065Z,88.75
2019-03-01T16:16:56.293Z,89.01
2019-03-01T16:19:29.220Z,88.05
2019-03-01T16:21:59.433Z,87.18
2019-03-01T16:24:29.963Z,87.84
2019-03-01T16:27:00.740Z,88.04
2019-03-01T16:29:31.321Z,88.70
2019-03-01T16:32:04.736Z,87.94
2019-03-01T16:34:33.848Z,89.24
2019-03-01T16:37:04.176Z,90.21
2019-03-01T16:39:35.263Z,90.69
2019-03-01T16:42:05.556Z,89.11
2019-03-01T16:44:37.060Z,88.58
2019-03-01T16:47:07.614Z,88.69
2019-03-01T16:49:38.611Z,88.55
2019-03-01T16:52:11.307Z,88.12
2019-03-01T16:54:43.811Z,88.76
2019-03-01T16:57:15.034Z,88.59
2019-03-01T16:59:46.365Z,88.61
2019-03-01T17:02:16.653Z,88.56
2019-03-01T17:04:47.080Z,88.50
2019-03-01T17:07:17.406Z,88.44
2019-03-01T17:09:51.337Z,88.56
2019-03-01T17:12:22.501Z,87.66
2019-03-01T17:14:53.325Z,87.54
2019-03-01T17:17:23.776Z,87.41
2019-03-01T17:19:54.147Z,88.55
2019-03-01T17:22:26.409Z,88.12
2019-03-01T17:24:56.800Z,89.01
2019-03-01T17:27:27.055Z,88.33
2019-03-01T17:29:57.355Z,87.60
2019-03-01T17:32:28.579Z,87.22
2019-03-01T17:35:01.125Z,87.60
2019-03-01T17:37:33.295Z,88.21
2019-03-01T17:40:03.785Z,89.86
2019-03-01T17:42:37.039Z,89.68
2019-03-01T17:45:11.844Z,90.18
2019-03-01T17:47:45.384Z,88.92
2019-03-01T17:50:14.583Z,89.42
2019-03-01T17:52:45.947Z,90.09
2019-03-01T17:55:17.543Z,90.07
2019-03-01T17:57:50.189Z,89.16
2019-03-01T18:00:26.550Z,88.29
2019-03-01T18:02:58.544Z,88.31
2019-03-01T18:05:29.732Z,88.14
2019-03-01T18:08:03.586Z,88.20
2019-03-01T18:10:36.799Z,88.51
2019-03-01T18:13:07.171Z,89.08
2019-03-01T18:15:37.824Z,88.82
2019-03-01T18:18:08.922Z,88.56
2019-03-01T18:20:41.771Z,87.51
2019-03-01T18:23:13.639Z,88.24
2019-03-01T18:25:43.911Z,87.79
2019-03-01T18:28:14.414Z,87.06
2019-03-01T18:30:46.380Z,86.00
2019-03-01T18:33:20.561Z,87.16
2019-03-01T18:35:52.449Z,85.71
2019-03-01T18:38:21.202Z,85.47
2019-03-01T18:40:54.375Z,85.59
2019-03-01T18:43:28.286Z,84.28
2019-03-01T18:45:58.685Z,84.38
2019-03-01T18:48:29.977Z,83.74
2019-03-01T18:51:03.561Z,83.42
2019-03-01T18:53:32.937Z,84.08
2019-03-01T18:56:03.378Z,83.35
2019-03-01T18:58:36.456Z,83.23
2019-03-01T19:01:10.888Z,84.70
2019-03-01T19:03:40.513Z,84.84
2019-03-01T19:06:12.899Z,84.45
2019-03-01T19:08:46.112Z,84.85
2019-03-01T19:11:16.741Z,85.05
2019-03-01T19:13:47.299Z,85.20
2019-03-01T19:16:18.188Z,84.63
2019-03-01T19:18:51.239Z,85.11
2019-03-01T19:21:23.669Z,84.57
2019-03-01T19:23:54.286Z,85.75
2019-03-01T19:26:24.707Z,85.12
2019-03-01T19:28:59.023Z,85.41
2019-03-01T19:31:28.454Z,85.09
2019-03-01T19:33:59.160Z,84.67
2019-03-01T19:36:29.636Z,84.04
2019-03-01T19:39:01.559Z,85.26
2019-03-01T19:41:33.593Z,84.42
2019-03-01T19:44:05.795Z,83.40
2019-03-01T19:46:36.487Z,83.93
2019-03-01T19:49:09.427Z,84.01
2019-03-01T19:51:44.891Z,84.73
2019-03-01T19:54:15.358Z,83.52
2019-03-01T19:56:46.762Z,83.14
2019-03-01T19:59:17.577Z,82.51
2019-03-01T20:01:49.467Z,81.27
2019-03-01T20:04:21.804Z,81.83
2019-03-01T20:06:52.815Z,82.66
2019-03-01T20:09:23.115Z,82.19
2019-03-01T20:11:59.227Z,81.65
2019-03-01T20:14:33.836Z,81.93
2019-03-01T20:17:02.708Z,79.92
2019-03-01T20:19:33.979Z,79.84
2019-03-01T20:22:05.084Z,79.52
2019-03-01T20:24:40.075Z,80.52
2019-03-01T20:27:09.745Z,79.12
2019-03-01T20:29:40.064Z,79.32
2019-03-01T20:32:12.619Z,78.60
2019-03-01T20:34:43.535Z,79.26
2019-03-01T20:37:16.578Z,79.48
2019-03-01T20:39:47.433Z,78.01
2019-03-01T20:42:23.598Z,77.90
2019-03-01T20:44:53.990Z,79.31
2019-03-01T20:47:24.585Z,78.80
2019-03-01T20:49:54.902Z,79.06
2019-03-01T20:52:27.254Z,79.55
2019-03-01T20:55:00.661Z,78.94
2019-03-01T20:57:32.406Z,79.12
2019-03-01T21:00:03.428Z,78.61
2019-03-01T21:02:35.670Z,79.23
2019-03-01T21:05:09.699Z,79.75
2019-03-01T21:07:41.831Z,81.01
2019-03-01T21:10:15.970Z,81.62
2019-03-01T21:12:49.210Z,82.11
2019-03-01T21:15:22.746Z,84.66
2019-03-01T21:17:57.145Z,85.42
2019-03-01T21:20:26.272Z,84.85
2019-03-01T21:22:57.031Z,84.96
2019-03-01T21:25:30.298Z,86.23
2019-03-01T21:28:01.718Z,86.70
2019-03-01T21:30:32.414Z,87.28
2019-03-01T21:33:02.918Z,86.25
2019-03-01T21:35:33.246Z,86.98
2019-03-01T21:38:03.968Z,86.97
2019-03-01T21:40:34.819Z,85.53
2019-03-01T21:43:07.000Z,85.73
2019-03-01T21:45:39.602Z,85.83
2019-03-01T21:48:10.010Z,85.47
2019-03-01T21:50:42.442Z,84.84
2019-03-01T21:53:12.851Z,84.97
2019-03-01T21:55:43.204Z,85.40
2019-03-01T21:58:13.489Z,86.77
2019-03-01T22:00:43.779Z,86.88
2019-03-01T22:03:14.130Z,86.94
2019-03-01T22:05:45.395Z,87.11
2019-03-01T22:08:16.543Z,86.28
2019-03-01T22:10:46.872Z,86.51
2019-03-01T22:13:19.545Z,85.52
2019-03-01T22:15:53.219Z,85.96
2019-03-01T22:18:24.869Z,86.27
2019-03-01T22:20:55.291Z,86.22
2019-03-01T22:23:25.967Z,84.89
2019-03-01T22:25:56.981Z,86.34
2019-03-01T22:28:27.241Z,86.62
2019-03-01T22:31:00.281Z,87.09
2019-03-01T22:33:29.746Z,85.87
2019-03-01T22:35:59.992Z,86.48
2019-03-01T22:38:30.400Z,87.25
2019-03-01T22:41:03.883Z,87.79
2019-03-01T22:43:32.628Z,87.62
2019-03-01T22:46:02.924Z,87.31
2019-03-01T22:48:33.284Z,87.86
2019-03-01T22:51:03.582Z,88.03
2019-03-01T22:53:34.026Z,88.25
2019-03-01T22:56:04.366Z,87.21
2019-03-01T22:58:36.496Z,87.58
2019-03-01T23:01:50.889Z,85.77
2019-03-01T23:04:22.312Z,85.27
2019-03-01T23:06:52.822Z,84.78
2019-03-01T23:09:23.434Z,83.22
2019-03-01T23:11:55.378Z,83.67
2019-03-01T23:14:27.368Z,85.13
2019-03-01T23:16:58.927Z,85.50
2019-03-01T23:19:29.701Z,85.86
2019-03-01T23:22:00.002Z,86.76
2019-03-01T23:24:49.517Z,86.52
2019-03-01T23:27:20.431Z,86.69
2019-03-01T23:29:54.265Z,86.80
2019-03-01T23:32:23.804Z,86.50
2019-03-01T23:34:54.157Z,85.38
2019-03-01T23:37:24.442Z,84.26
2019-03-01T23:39:57.146Z,84.24
2019-03-01T23:42:26.703Z,82.92
2019-03-01T23:44:59.227Z,82.17
2019-03-01T23:47:29.487Z,82.38
2019-03-01T23:50:00.799Z,82.11
2019-03-01T23:52:32.377Z,82.21
2019-03-01T23:55:03.851Z,80.88
2019-03-01T23:57:34.163Z,79.75
